MSC Ishyka — A8UW7 — position and weather

sailwx.info

Track history (hours):
 
Tides and Currents Weather Stations Pressure Air Temp Water Temp Dewpoint Dewpoint Depression Visibility Wind Speed Wind Dir Waves Ship Positions

MSC Ishyka

Last reported at 2017-Sep-13 22:50 UTC. Time now 2017-Sep-25 06:20 UTC.
Position N 05°19' E 000°21'.
Warning: this ship's position is 11 days out of date.

Length 208 m; draft 8.3 m.

Type: Ship (hazmat cat A). MMSI: 636016457.

Date/timePositionNaut miles runAvg speedWind from/ knotsBaromVisibWave heightAir tempDewpointWater temp
2017-Sep-13 22:50N 05°19' E 000°21'515.4
2017-Sep-13 22:30N 05°17' E 000°16'815.4
2017-Sep-13 22:00N 05°14' E 000°09'815.4
2017-Sep-13 21:30N 05°12' E 000°01'815.6
2017-Sep-13 21:00N 05°10' W 000°06'99 6.1
2017-Sep-13 04:48N 04°53' W 001°44'0 0.0
2017-Sep-13 04:27N 04°53' W 001°44'31 1.0
2017-Sep-11 21:22N 04°30' W 002°04'513.7
2017-Sep-11 20:59N 04°28' W 002°09'714.0
2017-Sep-11 20:29N 04°26' W 002°16'714.0
2017-Sep-11 19:59N 04°24' W 002°22'713.9
2017-Sep-11 19:29N 04°22' W 002°29'713.8
2017-Sep-11 18:59N 04°21' W 002°36'714.1
2017-Sep-11 18:29N 04°21' W 002°43'714.1
2017-Sep-11 17:58N 04°21' W 002°50'  
Track history (hours):
 
Tides and Currents Weather Stations Pressure Air Temp Water Temp Dewpoint Dewpoint Depression Visibility Wind Speed Wind Dir Waves Ship Positions

MSC Ishyka

Last reported at 2017-Sep-13 22:50 UTC. Time now 2017-Sep-25 06:20 UTC.
Position N 05°19' E 000°21'.
Warning: this ship's position is 11 days out of date.

Length 208 m; draft 8.3 m.

Type: Ship (hazmat cat A). MMSI: 636016457.

Date/timePositionNaut miles runAvg speedWind from/ knotsBaromVisibWave heightAir tempDewpointWater temp
2017-Sep-13 22:50N 05°19' E 000°21'515.4
2017-Sep-13 22:30N 05°17' E 000°16'815.4
2017-Sep-13 22:00N 05°14' E 000°09'815.4
2017-Sep-13 21:30N 05°12' E 000°01'815.6
2017-Sep-13 21:00N 05°10' W 000°06'99 6.1
2017-Sep-13 04:48N 04°53' W 001°44'0 0.0
2017-Sep-13 04:27N 04°53' W 001°44'31 1.0
2017-Sep-11 21:22N 04°30' W 002°04'513.7
2017-Sep-11 20:59N 04°28' W 002°09'714.0
2017-Sep-11 20:29N 04°26' W 002°16'714.0
2017-Sep-11 19:59N 04°24' W 002°22'713.9
2017-Sep-11 19:29N 04°22' W 002°29'713.8
2017-Sep-11 18:59N 04°21' W 002°36'714.1
2017-Sep-11 18:29N 04°21' W 002°43'714.1
2017-Sep-11 17:58N 04°21' W 002°50'  

Dump ship's entire track history